sensor_id;sensor_type;location;lat;lon;timestamp;pressure;altitude;pressure_sealevel;temperature;humidity
39739;BME280;25422;48.286;8.484;2023-01-25T00:00:03;95418.13;;;-1.80;100.00
39739;BME280;25422;48.286;8.484;2023-01-25T00:02:30;95422.28;;;-1.77;100.00
39739;BME280;25422;48.286;8.484;2023-01-25T00:04:55;95417.00;;;-1.74;100.00
39739;BME280;25422;48.286;8.484;2023-01-25T00:07:20;95411.25;;;-1.79;100.00
39739;BME280;25422;48.286;8.484;2023-01-25T00:09:46;95410.03;;;-1.71;100.00
39739;BME280;25422;48.286;8.484;2023-01-25T00:12:11;95405.88;;;-1.73;100.00
39739;BME280;25422;48.286;8.484;2023-01-25T00:14:36;95409.53;;;-1.79;100.00
39739;BME280;25422;48.286;8.484;2023-01-25T00:17:02;95413.72;;;-1.78;100.00
39739;BME280;25422;48.286;8.484;2023-01-25T00:19:27;95400.81;;;-1.75;100.00
39739;BME280;25422;48.286;8.484;2023-01-25T00:21:53;95397.59;;;-1.80;100.00
39739;BME280;25422;48.286;8.484;2023-01-25T00:24:18;95401.91;;;-1.80;100.00
39739;BME280;25422;48.286;8.484;2023-01-25T00:26:47;95394.88;;;-1.77;100.00
39739;BME280;25422;48.286;8.484;2023-01-25T00:29:12;95388.16;;;-1.79;100.00
39739;BME280;25422;48.286;8.484;2023-01-25T00:36:56;95392.19;;;-1.74;100.00
39739;BME280;25422;48.286;8.484;2023-01-25T00:39:24;95388.94;;;-1.77;100.00
39739;BME280;25422;48.286;8.484;2023-01-25T00:41:50;95387.47;;;-1.83;100.00
39739;BME280;25422;48.286;8.484;2023-01-25T00:44:16;95394.19;;;-1.80;100.00
39739;BME280;25422;48.286;8.484;2023-01-25T00:46:41;95391.63;;;-1.80;100.00
39739;BME280;25422;48.286;8.484;2023-01-25T00:49:18;95383.81;;;-1.77;100.00
39739;BME280;25422;48.286;8.484;2023-01-25T00:51:44;95376.25;;;-1.80;100.00
39739;BME280;25422;48.286;8.484;2023-01-25T00:54:09;95375.31;;;-1.79;100.00
39739;BME280;25422;48.286;8.484;2023-01-25T00:56:34;95384.91;;;-1.83;100.00
39739;BME280;25422;48.286;8.484;2023-01-25T00:59:00;95377.06;;;-1.80;100.00
39739;BME280;25422;48.286;8.484;2023-01-25T01:01:26;95390.53;;;-1.75;100.00
39739;BME280;25422;48.286;8.484;2023-01-25T01:03:51;95394.25;;;-1.82;100.00
39739;BME280;25422;48.286;8.484;2023-01-25T01:06:17;95393.41;;;-1.82;100.00
39739;BME280;25422;48.286;8.484;2023-01-25T01:08:43;95396.69;;;-1.79;100.00
39739;BME280;25422;48.286;8.484;2023-01-25T01:11:10;95393.84;;;-1.73;100.00
39739;BME280;25422;48.286;8.484;2023-01-25T01:13:37;95389.91;;;-1.80;100.00
39739;BME280;25422;48.286;8.484;2023-01-25T01:16:04;95389.09;;;-1.82;100.00
39739;BME280;25422;48.286;8.484;2023-01-25T01:18:34;95389.06;;;-1.80;100.00
39739;BME280;25422;48.286;8.484;2023-01-25T01:21:00;95368.19;;;-1.73;100.00
39739;BME280;25422;48.286;8.484;2023-01-25T01:23:27;95370.69;;;-1.71;100.00
39739;BME280;25422;48.286;8.484;2023-01-25T01:25:53;95374.44;;;-1.78;100.00
39739;BME280;25422;48.286;8.484;2023-01-25T01:28:18;95371.94;;;-1.80;100.00
39739;BME280;25422;48.286;8.484;2023-01-25T01:30:43;95366.72;;;-1.78;100.00
39739;BME280;25422;48.286;8.484;2023-01-25T01:33:09;95368.28;;;-1.74;100.00
39739;BME280;25422;48.286;8.484;2023-01-25T01:35:34;95368.47;;;-1.79;100.00
39739;BME280;25422;48.286;8.484;2023-01-25T01:38:00;95373.72;;;-1.82;100.00
39739;BME280;25422;48.286;8.484;2023-01-25T01:40:25;95375.25;;;-1.78;100.00
39739;BME280;25422;48.286;8.484;2023-01-25T01:43:05;95372.97;;;-1.84;100.00
39739;BME280;25422;48.286;8.484;2023-01-25T01:48:15;95366.88;;;-1.81;100.00
39739;BME280;25422;48.286;8.484;2023-01-25T01:50:44;95356.78;;;-1.86;100.00
39739;BME280;25422;48.286;8.484;2023-01-25T01:53:10;95349.81;;;-1.82;100.00
39739;BME280;25422;48.286;8.484;2023-01-25T01:55:38;95351.47;;;-1.81;100.00
39739;BME280;25422;48.286;8.484;2023-01-25T01:58:05;95356.25;;;-1.74;100.00
39739;BME280;25422;48.286;8.484;2023-01-25T02:00:34;95356.47;;;-1.78;100.00
39739;BME280;25422;48.286;8.484;2023-01-25T02:03:01;95353.25;;;-1.83;100.00
39739;BME280;25422;48.286;8.484;2023-01-25T02:05:41;95367.63;;;-1.79;100.00
39739;BME280;25422;48.286;8.484;2023-01-25T02:08:12;95362.41;;;-1.78;100.00
39739;BME280;25422;48.286;8.484;2023-01-25T02:10:40;95366.72;;;-1.78;100.00
39739;BME280;25422;48.286;8.484;2023-01-25T02:13:06;95366.03;;;-1.82;100.00
39739;BME280;25422;48.286;8.484;2023-01-25T02:15:42;95369.50;;;-1.83;100.00
39739;BME280;25422;48.286;8.484;2023-01-25T02:18:09;95365.19;;;-1.82;100.00
39739;BME280;25422;48.286;8.484;2023-01-25T02:20:37;95366.09;;;-1.83;100.00
39739;BME280;25422;48.286;8.484;2023-01-25T02:23:22;95364.25;;;-1.80;100.00
39739;BME280;25422;48.286;8.484;2023-01-25T02:25:49;95371.34;;;-1.87;100.00
39739;BME280;25422;48.286;8.484;2023-01-25T02:28:33;95374.75;;;-1.86;100.00
39739;BME280;25422;48.286;8.484;2023-01-25T02:31:00;95367.97;;;-1.87;100.00
39739;BME280;25422;48.286;8.484;2023-01-25T02:33:26;95378.91;;;-1.83;100.00
39739;BME280;25422;48.286;8.484;2023-01-25T02:35:57;95371.94;;;-1.80;100.00
39739;BME280;25422;48.286;8.484;2023-01-25T02:38:24;95369.50;;;-1.83;100.00
39739;BME280;25422;48.286;8.484;2023-01-25T02:41:12;95366.22;;;-1.87;100.00
39739;BME280;25422;48.286;8.484;2023-01-25T02:43:40;95362.84;;;-1.87;100.00
39739;BME280;25422;48.286;8.484;2023-01-25T02:46:37;95354.69;;;-1.76;100.00
39739;BME280;25422;48.286;8.484;2023-01-25T02:49:05;95357.56;;;-1.84;100.00
39739;BME280;25422;48.286;8.484;2023-01-25T02:51:33;95345.50;;;-1.82;100.00
39739;BME280;25422;48.286;8.484;2023-01-25T02:54:00;95347.31;;;-1.84;100.00
39739;BME280;25422;48.286;8.484;2023-01-25T02:56:26;95350.63;;;-1.82;100.00
39739;BME280;25422;48.286;8.484;2023-01-25T02:58:51;95342.03;;;-1.81;100.00
39739;BME280;25422;48.286;8.484;2023-01-25T03:01:18;95338.66;;;-1.81;100.00
39739;BME280;25422;48.286;8.484;2023-01-25T03:03:43;95331.84;;;-1.82;100.00
39739;BME280;25422;48.286;8.484;2023-01-25T03:06:09;95333.16;;;-1.74;100.00
39739;BME280;25422;48.286;8.484;2023-01-25T03:08:35;95332.34;;;-1.74;100.00
39739;BME280;25422;48.286;8.484;2023-01-25T03:11:02;95335.25;;;-1.82;100.00
39739;BME280;25422;48.286;8.484;2023-01-25T03:13:30;95343.84;;;-1.83;100.00
39739;BME280;25422;48.286;8.484;2023-01-25T03:16:07;95337.06;;;-1.84;100.00
39739;BME280;25422;48.286;8.484;2023-01-25T03:18:33;95331.91;;;-1.84;100.00
39739;BME280;25422;48.286;8.484;2023-01-25T03:21:07;95327.44;;;-1.79;100.00
39739;BME280;25422;48.286;8.484;2023-01-25T03:23:33;95329.78;;;-1.74;100.00
39739;BME280;25422;48.286;8.484;2023-01-25T03:28:36;95328.31;;;-1.80;100.00
39739;BME280;25422;48.286;8.484;2023-01-25T03:31:02;95328.09;;;-1.75;100.00
39739;BME280;25422;48.286;8.484;2023-01-25T03:33:28;95322.31;;;-1.79;100.00
39739;BME280;25422;48.286;8.484;2023-01-25T03:35:54;95315.56;;;-1.81;100.00
39739;BME280;25422;48.286;8.484;2023-01-25T03:38:20;95322.41;;;-1.82;100.00
39739;BME280;25422;48.286;8.484;2023-01-25T03:40:46;95318.13;;;-1.81;100.00
39739;BME280;25422;48.286;8.484;2023-01-25T03:43:12;95317.34;;;-1.83;100.00
39739;BME280;25422;48.286;8.484;2023-01-25T03:45:37;95318.31;;;-1.86;100.00
39739;BME280;25422;48.286;8.484;2023-01-25T03:48:03;95311.31;;;-1.82;100.00
39739;BME280;25422;48.286;8.484;2023-01-25T03:50:29;95313.81;;;-1.81;100.00
39739;BME280;25422;48.286;8.484;2023-01-25T03:52:55;95313.63;;;-1.76;100.00
39739;BME280;25422;48.286;8.484;2023-01-25T03:55:28;95318.94;;;-1.81;100.00
39739;BME280;25422;48.286;8.484;2023-01-25T03:57:53;95312.16;;;-1.82;100.00
39739;BME280;25422;48.286;8.484;2023-01-25T04:00:19;95302.44;;;-1.75;100.00
39739;BME280;25422;48.286;8.484;2023-01-25T04:02:48;95307.09;;;-1.83;100.00
39739;BME280;25422;48.286;8.484;2023-01-25T04:05:17;95309.72;;;-1.85;100.00
39739;BME280;25422;48.286;8.484;2023-01-25T04:07:42;95311.41;;;-1.84;100.00
39739;BME280;25422;48.286;8.484;2023-01-25T04:10:09;95308.69;;;-1.81;100.00
39739;BME280;25422;48.286;8.484;2023-01-25T04:12:39;95315.16;;;-1.72;100.00
39739;BME280;25422;48.286;8.484;2023-01-25T04:15:05;95311.25;;;-1.81;100.00
39739;BME280;25422;48.286;8.484;2023-01-25T04:17:30;95307.88;;;-1.81;100.00
39739;BME280;25422;48.286;8.484;2023-01-25T04:19:59;95307.78;;;-1.80;100.00
39739;BME280;25422;48.286;8.484;2023-01-25T04:22:32;95299.31;;;-1.82;100.00
39739;BME280;25422;48.286;8.484;2023-01-25T04:24:58;95290.88;;;-1.84;100.00
39739;BME280;25422;48.286;8.484;2023-01-25T04:27:23;95285.59;;;-1.81;100.00
39739;BME280;25422;48.286;8.484;2023-01-25T04:30:02;95290.72;;;-1.81;100.00
39739;BME280;25422;48.286;8.484;2023-01-25T04:32:28;95292.25;;;-1.77;100.00
39739;BME280;25422;48.286;8.484;2023-01-25T04:34:55;95284.84;;;-1.83;100.00
39739;BME280;25422;48.286;8.484;2023-01-25T04:37:23;95287.69;;;-1.70;100.00
39739;BME280;25422;48.286;8.484;2023-01-25T04:39:53;95283.75;;;-1.77;100.00
39739;BME280;25422;48.286;8.484;2023-01-25T04:42:19;95279.28;;;-1.74;100.00
39739;BME280;25422;48.286;8.484;2023-01-25T04:44:48;95288.25;;;-1.82;100.00
39739;BME280;25422;48.286;8.484;2023-01-25T04:47:14;95285.59;;;-1.81;100.00
39739;BME280;25422;48.286;8.484;2023-01-25T04:49:39;95282.28;;;-1.83;100.00
39739;BME280;25422;48.286;8.484;2023-01-25T04:52:05;95295.03;;;-1.81;100.00
39739;BME280;25422;48.286;8.484;2023-01-25T04:54:31;95288.81;;;-1.76;100.00
39739;BME280;25422;48.286;8.484;2023-01-25T04:56:57;95301.06;;;-1.82;100.00
39739;BME280;25422;48.286;8.484;2023-01-25T04:59:24;95285.47;;;-1.78;100.00
39739;BME280;25422;48.286;8.484;2023-01-25T05:01:50;95295.03;;;-1.81;100.00
39739;BME280;25422;48.286;8.484;2023-01-25T05:04:15;95289.97;;;-1.83;100.00
39739;BME280;25422;48.286;8.484;2023-01-25T05:06:44;95293.31;;;-1.81;100.00
39739;BME280;25422;48.286;8.484;2023-01-25T05:09:09;95279.56;;;-1.80;100.00
39739;BME280;25422;48.286;8.484;2023-01-25T05:11:35;95285.59;;;-1.81;100.00
39739;BME280;25422;48.286;8.484;2023-01-25T05:14:10;95280.63;;;-1.84;100.00
39739;BME280;25422;48.286;8.484;2023-01-25T05:16:35;95284.06;;;-1.85;100.00
39739;BME280;25422;48.286;8.484;2023-01-25T05:19:02;95280.69;;;-1.85;100.00
39739;BME280;25422;48.286;8.484;2023-01-25T05:21:37;95278.78;;;-1.82;100.00
39739;BME280;25422;48.286;8.484;2023-01-25T05:24:21;95281.38;;;-1.82;100.00
39739;BME280;25422;48.286;8.484;2023-01-25T05:26:47;95280.63;;;-1.84;100.00
39739;BME280;25422;48.286;8.484;2023-01-25T05:29:27;95282.41;;;-1.86;100.00
39739;BME280;25422;48.286;8.484;2023-01-25T05:32:00;95287.53;;;-1.86;100.00
39739;BME280;25422;48.286;8.484;2023-01-25T05:34:27;95275.19;;;-1.78;100.00
39739;BME280;25422;48.286;8.484;2023-01-25T05:36:52;95280.63;;;-1.84;100.00
39739;BME280;25422;48.286;8.484;2023-01-25T05:39:19;95287.41;;;-1.83;100.00
39739;BME280;25422;48.286;8.484;2023-01-25T05:41:46;95282.41;;;-1.86;100.00
39739;BME280;25422;48.286;8.484;2023-01-25T05:44:12;95276.38;;;-1.85;100.00
39739;BME280;25422;48.286;8.484;2023-01-25T05:46:42;95278.22;;;-1.89;100.00
39739;BME280;25422;48.286;8.484;2023-01-25T05:49:08;95278.94;;;-1.85;100.00
39739;BME280;25422;48.286;8.484;2023-01-25T05:51:34;95282.34;;;-1.84;100.00
39739;BME280;25422;48.286;8.484;2023-01-25T05:54:06;95278.03;;;-1.84;100.00
39739;BME280;25422;48.286;8.484;2023-01-25T05:56:33;95279.09;;;-1.88;100.00
39739;BME280;25422;48.286;8.484;2023-01-25T05:59:00;95273.06;;;-1.87;100.00
39739;BME280;25422;48.286;8.484;2023-01-25T06:01:27;95277.28;;;-1.86;100.00
39739;BME280;25422;48.286;8.484;2023-01-25T06:03:56;95268.03;;;-1.90;100.00
39739;BME280;25422;48.286;8.484;2023-01-25T06:06:24;95286.91;;;-1.91;100.00
39739;BME280;25422;48.286;8.484;2023-01-25T06:08:51;95280.03;;;-1.91;100.00
39739;BME280;25422;48.286;8.484;2023-01-25T06:11:19;95275.16;;;-1.97;100.00
39739;BME280;25422;48.286;8.484;2023-01-25T06:13:46;95279.97;;;-1.89;100.00
39739;BME280;25422;48.286;8.484;2023-01-25T06:16:13;95275.88;;;-1.93;100.00
39739;BME280;25422;48.286;8.484;2023-01-25T06:18:41;95282.69;;;-1.92;100.00
39739;BME280;25422;48.286;8.484;2023-01-25T06:21:16;95278.69;;;-1.99;100.00
39739;BME280;25422;48.286;8.484;2023-01-25T06:23:41;95271.72;;;-1.96;100.00
39739;BME280;25422;48.286;8.484;2023-01-25T06:26:11;95269.22;;;-1.97;100.00
39739;BME280;25422;48.286;8.484;2023-01-25T06:28:37;95272.41;;;-1.92;100.00
39739;BME280;25422;48.286;8.484;2023-01-25T06:31:04;95262.16;;;-1.92;100.00
39739;BME280;25422;48.286;8.484;2023-01-25T06:33:30;95263.13;;;-1.95;100.00
39739;BME280;25422;48.286;8.484;2023-01-25T06:36:00;95269.06;;;-1.94;100.00
39739;BME280;25422;48.286;8.484;2023-01-25T06:38:25;95255.16;;;-1.89;100.00
39739;BME280;25422;48.286;8.484;2023-01-25T06:40:50;95262.72;;;-1.85;100.00
39739;BME280;25422;48.286;8.484;2023-01-25T06:43:16;95260.50;;;-1.93;100.00
39739;BME280;25422;48.286;8.484;2023-01-25T06:45:41;95257.84;;;-1.92;100.00
39739;BME280;25422;48.286;8.484;2023-01-25T06:48:07;95261.06;;;-1.87;100.00
39739;BME280;25422;48.286;8.484;2023-01-25T06:50:32;95261.44;;;-1.96;100.00
39739;BME280;25422;48.286;8.484;2023-01-25T06:52:57;95256.81;;;-1.88;100.00
39739;BME280;25422;48.286;8.484;2023-01-25T06:55:23;95262.34;;;-1.97;100.00
39739;BME280;25422;48.286;8.484;2023-01-25T06:57:48;95265.75;;;-1.96;100.00
39739;BME280;25422;48.286;8.484;2023-01-25T07:00:15;95266.72;;;-1.99;100.00
39739;BME280;25422;48.286;8.484;2023-01-25T07:02:41;95258.31;;;-2.03;100.00
39739;BME280;25422;48.286;8.484;2023-01-25T07:05:06;95263.59;;;-2.06;100.00
39739;BME280;25422;48.286;8.484;2023-01-25T07:07:32;95258.97;;;-1.97;100.00
39739;BME280;25422;48.286;8.484;2023-01-25T07:09:57;95266.00;;;-2.03;100.00
39739;BME280;25422;48.286;8.484;2023-01-25T07:12:24;95262.69;;;-2.05;100.00
39739;BME280;25422;48.286;8.484;2023-01-25T07:14:50;95257.44;;;-2.01;100.00
39739;BME280;25422;48.286;8.484;2023-01-25T07:17:16;95263.53;;;-2.04;100.00
39739;BME280;25422;48.286;8.484;2023-01-25T07:19:41;95268.66;;;-2.04;100.00
39739;BME280;25422;48.286;8.484;2023-01-25T07:22:06;95258.25;;;-2.01;100.00
39739;BME280;25422;48.286;8.484;2023-01-25T07:24:32;95259.22;;;-2.04;100.00
39739;BME280;25422;48.286;8.484;2023-01-25T07:26:57;95253.13;;;-2.01;100.00
39739;BME280;25422;48.286;8.484;2023-01-25T07:29:23;95259.22;;;-2.04;100.00
39739;BME280;25422;48.286;8.484;2023-01-25T07:31:48;95249.88;;;-2.05;100.00
39739;BME280;25422;48.286;8.484;2023-01-25T07:34:13;95246.47;;;-2.05;100.00
39739;BME280;25422;48.286;8.484;2023-01-25T07:36:39;95249.88;;;-2.05;100.00
39739;BME280;25422;48.286;8.484;2023-01-25T07:39:05;95242.88;;;-2.01;100.00
39739;BME280;25422;48.286;8.484;2023-01-25T07:41:33;95237.72;;;-2.01;100.00
39739;BME280;25422;48.286;8.484;2023-01-25T07:44:00;95239.47;;;-2.01;100.00
39739;BME280;25422;48.286;8.484;2023-01-25T07:46:33;95238.44;;;-1.97;100.00
39739;BME280;25422;48.286;8.484;2023-01-25T07:48:59;95236.78;;;-1.98;100.00
39739;BME280;25422;48.286;8.484;2023-01-25T07:51:24;95240.94;;;-1.96;100.00
39739;BME280;25422;48.286;8.484;2023-01-25T07:53:59;95237.41;;;-1.93;100.00
39739;BME280;25422;48.286;8.484;2023-01-25T07:56:31;95231.25;;;-1.89;100.00
39739;BME280;25422;48.286;8.484;2023-01-25T07:58:58;95228.59;;;-1.88;100.00
39739;BME280;25422;48.286;8.484;2023-01-25T08:01:25;95226.19;;;-1.91;100.00
39739;BME280;25422;48.286;8.484;2023-01-25T08:03:52;95224.72;;;-1.96;100.00
39739;BME280;25422;48.286;8.484;2023-01-25T08:06:25;95212.72;;;-1.96;100.00
39739;BME280;25422;48.286;8.484;2023-01-25T08:08:56;95206.41;;;-1.89;100.00
39739;BME280;25422;48.286;8.484;2023-01-25T08:11:27;95213.13;;;-1.86;100.00
39739;BME280;25422;48.286;8.484;2023-01-25T08:13:53;95207.13;;;-1.85;100.00
39739;BME280;25422;48.286;8.484;2023-01-25T08:16:21;95214.00;;;-1.85;100.00
39739;BME280;25422;48.286;8.484;2023-01-25T08:18:52;95217.44;;;-1.87;100.00
39739;BME280;25422;48.286;8.484;2023-01-25T08:21:19;95207.44;;;-1.74;100.00
39739;BME280;25422;48.286;8.484;2023-01-25T08:23:44;95206.97;;;-1.82;100.00
39739;BME280;25422;48.286;8.484;2023-01-25T08:26:11;95209.59;;;-1.83;100.00
39739;BME280;25422;48.286;8.484;2023-01-25T08:28:37;95203.81;;;-1.87;100.00
39739;BME280;25422;48.286;8.484;2023-01-25T08:31:09;95202.13;;;-1.88;100.00
39739;BME280;25422;48.286;8.484;2023-01-25T08:33:35;95207.59;;;-1.77;100.00
39739;BME280;25422;48.286;8.484;2023-01-25T08:36:00;95200.78;;;-1.78;100.00
39739;BME280;25422;48.286;8.484;2023-01-25T08:38:26;95201.31;;;-1.70;100.00
39739;BME280;25422;48.286;8.484;2023-01-25T08:40:51;95202.13;;;-1.69;100.00
39739;BME280;25422;48.286;8.484;2023-01-25T08:43:17;95198.19;;;-1.76;100.00
39739;BME280;25422;48.286;8.484;2023-01-25T08:45:42;95196.19;;;-1.70;100.00
39739;BME280;25422;48.286;8.484;2023-01-25T08:48:07;95198.53;;;-1.65;100.00
39739;BME280;25422;48.286;8.484;2023-01-25T08:50:33;95187.28;;;-1.62;100.00
39739;BME280;25422;48.286;8.484;2023-01-25T08:52:58;95190.53;;;-1.59;100.00
39739;BME280;25422;48.286;8.484;2023-01-25T08:55:24;95188.81;;;-1.58;100.00
39739;BME280;25422;48.286;8.484;2023-01-25T08:57:49;95179.13;;;-1.71;100.00
39739;BME280;25422;48.286;8.484;2023-01-25T09:00:15;95187.13;;;-1.59;100.00
39739;BME280;25422;48.286;8.484;2023-01-25T09:02:41;95190.75;;;-1.63;100.00
39739;BME280;25422;48.286;8.484;2023-01-25T09:05:06;95187.56;;;-1.68;100.00
39739;BME280;25422;48.286;8.484;2023-01-25T09:07:32;95179.59;;;-1.62;100.00
39739;BME280;25422;48.286;8.484;2023-01-25T09:10:02;95175.34;;;-1.63;100.00
39739;BME280;25422;48.286;8.484;2023-01-25T09:12:28;95190.75;;;-1.63;100.00
39739;BME280;25422;48.286;8.484;2023-01-25T09:14:53;95178.97;;;-1.67;100.00
39739;BME280;25422;48.286;8.484;2023-01-25T09:17:19;95166.91;;;-1.65;100.00
39739;BME280;25422;48.286;8.484;2023-01-25T09:19:46;95171.75;;;-1.59;100.00
39739;BME280;25422;48.286;8.484;2023-01-25T09:22:11;95168.69;;;-1.67;100.00
39739;BME280;25422;48.286;8.484;2023-01-25T09:24:37;95168.97;;;-1.74;100.00
39739;BME280;25422;48.286;8.484;2023-01-25T09:27:02;95167.81;;;-1.66;100.00
39739;BME280;25422;48.286;8.484;2023-01-25T09:29:27;95161.06;;;-1.69;100.00
39739;BME280;25422;48.286;8.484;2023-01-25T09:31:53;95166.41;;;-1.74;100.00
39739;BME280;25422;48.286;8.484;2023-01-25T09:34:30;95170.22;;;-1.63;100.00
39739;BME280;25422;48.286;8.484;2023-01-25T09:36:56;95167.56;;;-1.62;100.00
39739;BME280;25422;48.286;8.484;2023-01-25T09:39:21;95172.22;;;-1.51;100.00
39739;BME280;25422;48.286;8.484;2023-01-25T09:44:45;95163.84;;;-1.55;100.00
39739;BME280;25422;48.286;8.484;2023-01-25T09:47:26;95169.03;;;-1.56;100.00
39739;BME280;25422;48.286;8.484;2023-01-25T09:50:17;95160.44;;;-1.55;100.00
39739;BME280;25422;48.286;8.484;2023-01-25T09:55:26;95156.97;;;-1.54;100.00
39739;BME280;25422;48.286;8.484;2023-01-25T09:57:54;95158.63;;;-1.53;100.00
39739;BME280;25422;48.286;8.484;2023-01-25T10:00:33;95156.06;;;-1.53;100.00
39739;BME280;25422;48.286;8.484;2023-01-25T10:05:52;95147.84;;;-1.42;100.00
39739;BME280;25422;48.286;8.484;2023-01-25T10:08:31;95151.09;;;-1.39;100.00
39739;BME280;25422;48.286;8.484;2023-01-25T10:11:25;95148.06;;;-1.47;100.00
39739;BME280;25422;48.286;8.484;2023-01-25T10:13:52;95142.19;;;-1.49;100.00
39739;BME280;25422;48.286;8.484;2023-01-25T10:16:36;95148.28;;;-1.51;100.00
39739;BME280;25422;48.286;8.484;2023-01-25T10:19:19;95154.25;;;-1.51;100.00
39739;BME280;25422;48.286;8.484;2023-01-25T10:22:00;95148.97;;;-1.48;100.00
39739;BME280;25422;48.286;8.484;2023-01-25T10:25:10;95151.47;;;-1.46;100.00
39739;BME280;25422;48.286;8.484;2023-01-25T10:32:50;95149.19;;;-1.53;100.00
39739;BME280;25422;48.286;8.484;2023-01-25T10:35:19;95153.97;;;-1.45;100.00
39739;BME280;25422;48.286;8.484;2023-01-25T10:37:46;95148.41;;;-1.36;100.00
39739;BME280;25422;48.286;8.484;2023-01-25T10:40:16;95134.72;;;-1.36;100.00
39739;BME280;25422;48.286;8.484;2023-01-25T10:42:49;95141.28;;;-1.30;100.00
39739;BME280;25422;48.286;8.484;2023-01-25T10:45:16;95127.91;;;-1.37;100.00
39739;BME280;25422;48.286;8.484;2023-01-25T10:47:46;95131.50;;;-1.40;100.00
39739;BME280;25422;48.286;8.484;2023-01-25T10:53:20;95124.16;;;-1.30;100.00
39739;BME280;25422;48.286;8.484;2023-01-25T10:56:01;95123.47;;;-1.33;100.00
39739;BME280;25422;48.286;8.484;2023-01-25T10:58:42;95117.19;;;-1.45;100.00
39739;BME280;25422;48.286;8.484;2023-01-25T11:01:12;95120.13;;;-1.53;100.00
39739;BME280;25422;48.286;8.484;2023-01-25T11:03:40;95120.13;;;-1.53;100.00
39739;BME280;25422;48.286;8.484;2023-01-25T11:06:07;95114.94;;;-1.34;100.00
39739;BME280;25422;48.286;8.484;2023-01-25T11:08:36;95113.66;;;-1.25;100.00
39739;BME280;25422;48.286;8.484;2023-01-25T11:11:25;95101.50;;;-1.39;100.00
39739;BME280;25422;48.286;8.484;2023-01-25T11:13:55;95107.25;;;-1.34;100.00
39739;BME280;25422;48.286;8.484;2023-01-25T11:18:58;95102.78;;;-1.30;100.00
39739;BME280;25422;48.286;8.484;2023-01-25T11:21:37;95097.44;;;-1.26;100.00
39739;BME280;25422;48.286;8.484;2023-01-25T11:24:16;95096.47;;;-1.23;100.00
39739;BME280;25422;48.286;8.484;2023-01-25T11:26:42;95095.59;;;-1.41;100.00
39739;BME280;25422;48.286;8.484;2023-01-25T11:29:15;95091.75;;;-1.32;100.00
39739;BME280;25422;48.286;8.484;2023-01-25T11:31:49;95084.06;;;-1.15;100.00
39739;BME280;25422;48.286;8.484;2023-01-25T11:34:18;95081.88;;;-1.23;100.00
39739;BME280;25422;48.286;8.484;2023-01-25T11:37:01;95087.97;;;-1.25;100.00
39739;BME280;25422;48.286;8.484;2023-01-25T11:50:38;95070.84;;;-1.25;100.00
39739;BME280;25422;48.286;8.484;2023-01-25T11:58:24;95057.84;;;-1.04;100.00
39739;BME280;25422;48.286;8.484;2023-01-25T12:01:06;95052.28;;;-1.12;100.00
39739;BME280;25422;48.286;8.484;2023-01-25T12:03:50;95052.88;;;-1.25;100.00
39739;BME280;25422;48.286;8.484;2023-01-25T12:06:37;95043.34;;;-1.23;100.00
39739;BME280;25422;48.286;8.484;2023-01-25T12:11:57;95032.91;;;-1.20;100.00
39739;BME280;25422;48.286;8.484;2023-01-25T12:17:26;95019.88;;;-1.32;100.00
39739;BME280;25422;48.286;8.484;2023-01-25T12:25:25;95012.91;;;-1.30;100.00
39739;BME280;25422;48.286;8.484;2023-01-25T12:31:01;94996.09;;;-1.54;100.00
39739;BME280;25422;48.286;8.484;2023-01-25T12:33:40;94992.47;;;-1.49;100.00
39739;BME280;25422;48.286;8.484;2023-01-25T12:44:39;94964.09;;;-1.29;100.00
39739;BME280;25422;48.286;8.484;2023-01-25T12:52:31;94964.84;;;-1.44;100.00
39739;BME280;25422;48.286;8.484;2023-01-25T12:55:10;94951.72;;;-1.38;100.00
39739;BME280;25422;48.286;8.484;2023-01-25T12:58:00;94960.56;;;-1.44;100.00
39739;BME280;25422;48.286;8.484;2023-01-25T13:00:41;94950.06;;;-1.39;100.00
39739;BME280;25422;48.286;8.484;2023-01-25T13:03:29;94946.97;;;-1.46;100.00
39739;BME280;25422;48.286;8.484;2023-01-25T13:06:06;94945.28;;;-1.47;100.00
39739;BME280;25422;48.286;8.484;2023-01-25T13:08:57;94947.47;;;-1.39;100.00
39739;BME280;25422;48.286;8.484;2023-01-25T13:11:32;94941.84;;;-1.46;100.00
39739;BME280;25422;48.286;8.484;2023-01-25T13:16:54;94936.41;;;-1.40;100.00
39739;BME280;25422;48.286;8.484;2023-01-25T13:19:21;94934.13;;;-1.46;100.00
39739;BME280;25422;48.286;8.484;2023-01-25T13:22:03;94930.22;;;-1.53;100.00
39739;BME280;25422;48.286;8.484;2023-01-25T13:24:33;94928.41;;;-1.51;100.00
39739;BME280;25422;48.286;8.484;2023-01-25T13:27:02;94924.00;;;-1.31;100.00
39739;BME280;25422;48.286;8.484;2023-01-25T13:32:04;94914.50;;;-1.47;100.00
39739;BME280;25422;48.286;8.484;2023-01-25T13:37:15;94915.94;;;-1.59;100.00
39739;BME280;25422;48.286;8.484;2023-01-25T13:39:43;94908.94;;;-1.55;100.00
39739;BME280;25422;48.286;8.484;2023-01-25T13:44:39;94908.19;;;-1.57;100.00
39739;BME280;25422;48.286;8.484;2023-01-25T13:47:11;94910.00;;;-1.59;100.00
39739;BME280;25422;48.286;8.484;2023-01-25T13:49:43;94906.53;;;-1.58;100.00
39739;BME280;25422;48.286;8.484;2023-01-25T13:52:17;94897.59;;;-1.51;100.00
39739;BME280;25422;48.286;8.484;2023-01-25T13:54:48;94905.63;;;-1.57;100.00
39739;BME280;25422;48.286;8.484;2023-01-25T13:57:19;94899.56;;;-1.56;100.00
39739;BME280;25422;48.286;8.484;2023-01-25T13:59:45;94898.59;;;-1.54;100.00
39739;BME280;25422;48.286;8.484;2023-01-25T14:02:22;94896.25;;;-1.58;100.00
39739;BME280;25422;48.286;8.484;2023-01-25T14:04:50;94894.16;;;-1.67;100.00
39739;BME280;25422;48.286;8.484;2023-01-25T14:07:18;94894.69;;;-1.78;100.00
39739;BME280;25422;48.286;8.484;2023-01-25T14:09:45;94884.97;;;-1.89;100.00
39739;BME280;25422;48.286;8.484;2023-01-25T14:12:26;94887.09;;;-1.80;100.00
39739;BME280;25422;48.286;8.484;2023-01-25T14:14:54;94879.22;;;-1.77;100.00
39739;BME280;25422;48.286;8.484;2023-01-25T14:17:21;94875.31;;;-1.84;100.00
39739;BME280;25422;48.286;8.484;2023-01-25T14:19:57;94871.22;;;-1.71;100.00
39739;BME280;25422;48.286;8.484;2023-01-25T14:22:29;94872.41;;;-1.60;100.00
39739;BME280;25422;48.286;8.484;2023-01-25T14:27:41;94872.50;;;-1.62;100.00